Time;durP1;ratioP1;P1;durP2;ratioP2;P2;SDS_P1;SDS_P2;PMS_P1;PMS_P2;Temp;Humidity;BMP_temperature;BMP_pressure;BME280_temperature;BME280_humidity;BME280_pressure;Samples;Min_cycle;Max_cycle;Signal;HPM_P1;HPM_P2
2022/12/16 00:02:09;;;;;;;121.70;46.70;;;;;;;-6.18;100.00;100972.28;5164589;28;20026;-72
2022/12/16 00:04:39;;;;;;;116.13;48.35;;;;;;;-6.10;100.00;100972.88;5164605;28;20014;-71
2022/12/16 00:07:10;;;;;;;127.43;47.40;;;;;;;-6.04;100.00;100968.25;5163925;28;20030;-71
2022/12/16 00:09:40;;;;;;;117.78;46.90;;;;;;;-6.02;100.00;100984.75;5164227;28;20031;-71
2022/12/16 00:12:11;;;;;;;131.88;47.50;;;;;;;-5.94;100.00;100980.97;5164666;28;20029;-70
2022/12/16 00:14:41;;;;;;;123.95;46.78;;;;;;;-5.91;100.00;100979.06;5164428;28;20031;-70
2022/12/16 00:17:12;;;;;;;122.05;46.58;;;;;;;-5.84;100.00;100966.63;5163870;28;20113;-70
2022/12/16 00:19:42;;;;;;;121.40;45.72;;;;;;;-5.79;100.00;100965.53;5164016;28;20105;-70
2022/12/16 00:22:12;;;;;;;121.57;47.75;;;;;;;-5.73;100.00;100967.03;5164081;28;20050;-70
2022/12/16 00:24:43;;;;;;;129.50;51.17;;;;;;;-5.70;100.00;100966.94;5164202;28;20062;-70
2022/12/16 00:27:13;;;;;;;123.80;47.30;;;;;;;-5.70;100.00;100964.31;5163919;28;20026;-70
2022/12/16 00:29:44;;;;;;;113.38;45.85;;;;;;;-5.61;100.00;100966.59;5164074;28;20496;-70
2022/12/16 00:32:14;;;;;;;115.50;44.67;;;;;;;-5.48;100.00;100967.78;5178938;28;20130;-69
2022/12/16 00:34:45;;;;;;;124.70;45.92;;;;;;;-5.37;100.00;100961.25;5164068;28;20073;-69
2022/12/16 00:37:15;;;;;;;112.70;46.72;;;;;;;-5.37;100.00;100962.16;5163803;28;20037;-70
2022/12/16 00:39:46;;;;;;;124.65;46.53;;;;;;;-5.37;100.00;100970.00;5164043;28;20109;-70
2022/12/16 00:42:16;;;;;;;122.80;48.28;;;;;;;-5.33;100.00;100975.91;5163901;28;20040;-70
2022/12/16 00:44:47;;;;;;;124.35;46.40;;;;;;;-5.33;100.00;100968.94;5163730;28;20494;-70
2022/12/16 00:47:17;;;;;;;119.82;44.50;;;;;;;-5.35;100.00;100967.31;5163124;28;20033;-70
2022/12/16 00:49:47;;;;;;;110.22;44.72;;;;;;;-5.32;100.00;100970.66;5163827;28;20053;-70
2022/12/16 00:52:18;;;;;;;112.75;45.20;;;;;;;-5.26;100.00;100980.00;5163813;28;20030;-69
2022/12/16 00:54:48;;;;;;;115.13;43.90;;;;;;;-5.21;100.00;100978.06;5163766;28;20032;-70
2022/12/16 00:57:19;;;;;;;116.82;43.83;;;;;;;-5.13;100.00;100985.56;5162573;28;20118;-70
2022/12/16 00:59:49;;;;;;;108.03;43.40;;;;;;;-5.05;100.00;100986.97;5163699;28;20380;-70
2022/12/16 01:02:20;;;;;;;111.70;42.70;;;;;;;-4.88;100.00;100980.16;5163619;28;20023;-69
2022/12/16 01:04:50;;;;;;;107.78;42.10;;;;;;;-4.79;100.00;100985.03;5163435;28;20030;-69
2022/12/16 01:07:20;;;;;;;110.50;41.97;;;;;;;-4.68;100.00;100985.41;5161956;28;20381;-69
2022/12/16 01:09:51;;;;;;;111.28;44.50;;;;;;;-4.65;100.00;100982.66;5162850;28;20035;-69
2022/12/16 01:12:22;;;;;;;101.82;42.83;;;;;;;-4.62;100.00;100987.75;5163606;28;20038;-69
2022/12/16 01:14:53;;;;;;;97.82;40.40;;;;;;;-4.58;100.00;100983.25;5163422;28;20034;-69
2022/12/16 01:17:26;;;;;;;114.55;43.00;;;;;;;-4.54;100.00;100982.19;5163001;28;20022;-69
2022/12/16 01:19:57;;;;;;;114.22;46.20;;;;;;;-4.49;100.00;100986.31;5163182;28;20018;-70
2022/12/16 01:22:31;;;;;;;120.45;47.45;;;;;;;-4.44;100.00;100986.13;5162531;28;20092;-70
2022/12/16 01:25:02;;;;;;;102.85;42.53;;;;;;;-4.40;100.00;100986.84;5163281;28;20023;-70
2022/12/16 01:27:32;;;;;;;106.15;45.17;;;;;;;-4.35;100.00;101000.59;5162567;28;20030;-69
2022/12/16 01:30:04;;;;;;;113.88;45.53;;;;;;;-4.30;100.00;100999.47;5163103;28;20069;-69
2022/12/16 01:32:35;;;;;;;105.97;44.42;;;;;;;-4.27;100.00;100995.84;5163079;28;20044;-69
2022/12/16 01:35:06;;;;;;;96.18;41.55;;;;;;;-4.24;100.00;101007.03;5162783;28;20037;-71
2022/12/16 01:37:36;;;;;;;106.03;41.97;;;;;;;-4.18;100.00;101008.53;5162472;28;20081;-70
2022/12/16 01:40:16;;;;;;;109.38;42.40;;;;;;;-4.12;100.00;101017.88;5162934;28;20022;-70
2022/12/16 01:42:46;;;;;;;109.55;43.63;;;;;;;-4.09;100.00;101018.59;5163110;28;20399;-70
2022/12/16 01:45:30;;;;;;;112.88;44.53;;;;;;;-4.02;100.00;101022.63;5162422;28;20022;-70
2022/12/16 01:48:15;;;;;;;109.70;44.35;;;;;;;-3.97;100.00;101027.69;5162287;28;20031;-70
2022/12/16 01:50:47;;;;;;;107.03;43.78;;;;;;;-3.92;100.00;101028.31;5162892;28;20022;-70
2022/12/16 01:53:18;;;;;;;112.57;41.33;;;;;;;-3.80;100.00;101037.41;5162669;28;20030;-71
2022/12/16 01:55:51;;;;;;;101.68;40.97;;;;;;;-3.57;100.00;101047.69;5162809;28;20026;-70
2022/12/16 01:58:26;;;;;;;98.25;39.10;;;;;;;-3.53;100.00;101044.00;5162092;28;20037;-69
2022/12/16 02:00:57;;;;;;;;;;;;;;;-3.50;100.00;101043.88;5163643;28;20454;-71
2022/12/16 02:03:30;;;;;;;101.55;38.55;;;;;;;-3.50;100.00;101038.63;5162885;28;19910;-71
2022/12/16 02:06:04;;;;;;;108.20;41.85;;;;;;;-3.49;100.00;101036.84;5162823;28;20400;-71
2022/12/16 02:08:34;;;;;;;94.85;38.78;;;;;;;-3.46;100.00;101039.34;5161526;28;20018;-70
2022/12/16 02:11:08;;;;;;;104.10;40.50;;;;;;;-3.34;100.00;101045.75;5162625;28;20036;-71
2022/12/16 02:14:00;;;;;;;100.28;40.15;;;;;;;-3.36;100.00;101044.97;5162753;28;20112;-70
2022/12/16 02:17:03;;;;;;;105.90;40.55;;;;;;;-3.36;100.00;101044.97;5161069;28;20105;-71
2022/12/16 02:19:51;;;;;;;88.03;39.60;;;;;;;-3.35;100.00;101046.69;5162535;28;20045;-71
2022/12/16 02:22:45;;;;;;;95.93;39.17;;;;;;;-3.31;100.00;101056.09;5157106;28;20485;-70
2022/12/16 02:25:46;;;;;;;93.25;38.25;;;;;;;-3.30;100.00;101056.03;5163645;28;20046;-71
2022/12/16 02:28:50;;;;;;;105.40;40.97;;;;;;;-3.27;100.00;101049.78;5162240;28;20018;-70
2022/12/16 02:31:42;;;;;;;98.35;38.55;;;;;;;-3.24;100.00;101047.03;5177634;28;20034;-70
2022/12/16 02:34:33;;;;;;;96.72;39.33;;;;;;;-3.21;100.00;101054.75;5162517;28;20030;-71
2022/12/16 02:37:13;;;;;;;96.68;39.58;;;;;;;-3.18;100.00;101054.59;5177513;28;20027;-71
2022/12/16 02:40:24;;;;;;;97.95;41.00;;;;;;;-3.14;100.00;101053.53;5162509;28;20030;-72
2022/12/16 02:43:03;;;;;;;98.20;38.08;;;;;;;-3.10;100.00;101057.72;5162632;28;20061;-71
2022/12/16 02:45:35;;;;;;;95.22;38.50;;;;;;;-3.06;100.00;101059.28;5162091;28;20023;-71
2022/12/16 02:48:06;;;;;;;99.90;39.38;;;;;;;-3.02;100.00;101052.94;5161975;28;20042;-70
2022/12/16 02:50:55;;;;;;;101.93;41.75;;;;;;;-2.98;100.00;101062.34;5162476;28;20014;-70
2022/12/16 02:53:27;;;;;;;92.50;37.80;;;;;;;-2.92;100.00;101061.22;5162635;28;20030;-71
2022/12/16 02:56:23;;;;;;;90.38;38.80;;;;;;;-2.89;100.00;101053.19;5162322;28;20073;-71
2022/12/16 02:59:23;;;;;;;87.93;36.75;;;;;;;-2.84;100.00;101053.81;5176975;28;20033;-71
2022/12/16 03:02:03;;;;;;;88.95;37.70;;;;;;;-2.79;100.00;101061.47;5175748;28;20133;-71
2022/12/16 03:04:40;;;;;;;96.63;40.63;;;;;;;-2.80;100.00;101062.41;5161998;28;20552;-71
2022/12/16 03:07:15;;;;;;;95.47;37.97;;;;;;;-2.79;100.00;101061.47;5161989;28;20030;-71
2022/12/16 03:09:47;;;;;;;92.25;39.50;;;;;;;-2.78;100.00;101063.16;5161824;28;20504;-71
2022/12/16 03:12:21;;;;;;;91.88;37.83;;;;;;;-2.76;100.00;101067.44;5162382;28;20029;-71
2022/12/16 03:14:53;;;;;;;103.88;40.38;;;;;;;-2.71;100.00;101069.81;5162134;28;20375;-70
2022/12/16 03:17:26;;;;;;;101.13;40.90;;;;;;;-2.69;100.00;101071.44;5161840;28;20026;-71
2022/12/16 03:20:12;;;;;;;98.28;40.70;;;;;;;-2.67;100.00;101072.19;5178455;28;20030;-71
2022/12/16 03:22:46;;;;;;;88.32;40.10;;;;;;;-2.65;100.00;101074.78;5175348;28;21809;-70
2022/12/16 03:25:20;;;;;;;98.70;41.90;;;;;;;-2.65;100.00;101080.03;5165637;28;20037;-70
2022/12/16 03:28:11;;;;;;;95.10;41.15;;;;;;;-2.63;100.00;101089.50;5165118;28;20042;-71
2022/12/16 03:30:48;;;;;;;98.95;41.25;;;;;;;-2.62;100.00;101095.63;5181230;28;20057;-70
2022/12/16 03:33:28;;;;;;;103.50;40.75;;;;;;;-2.60;100.00;101099.03;5165805;28;20476;-71
2022/12/16 03:36:26;;;;;;;103.53;41.25;;;;;;;-2.58;100.00;101097.16;5165606;28;20109;-71
2022/12/16 03:38:58;;;;;;;108.30;41.72;;;;;;;-2.57;100.00;101100.63;5165711;28;20038;-71
2022/12/16 03:41:31;;;;;;;104.72;41.78;;;;;;;-2.56;100.00;101097.97;5165722;28;20037;-71
2022/12/16 03:44:02;;;;;;;96.75;39.55;;;;;;;-2.50;100.00;101107.31;5165126;28;20530;-71
2022/12/16 03:46:33;;;;;;;99.35;40.20;;;;;;;-2.38;100.00;101112.78;5165258;28;20233;-71
2022/12/16 03:49:03;;;;;;;95.90;40.70;;;;;;;-2.33;100.00;101120.44;5180037;28;20111;-71
2022/12/16 03:51:33;;;;;;;100.18;39.80;;;;;;;-2.30;100.00;101116.81;5165864;28;20480;-71
2022/12/16 03:54:04;;;;;;;104.32;39.53;;;;;;;-2.28;100.00;101120.22;5165404;28;20030;-71
2022/12/16 03:56:34;;;;;;;105.32;41.58;;;;;;;-2.20;100.00;101125.94;5164891;28;20018;-71
2022/12/16 03:59:05;;;;;;;102.80;38.65;;;;;;;-2.15;100.00;101126.56;5164920;28;20439;-71
2022/12/16 04:01:36;;;;;;;119.47;41.17;;;;;;;-2.04;100.00;101134.72;5165231;28;20033;-71
2022/12/16 04:04:06;;;;;;;114.07;41.33;;;;;;;-1.98;100.00;101125.69;5165241;28;20026;-71
2022/12/16 04:06:37;;;;;;;122.53;42.97;;;;;;;-1.92;100.00;101130.63;5165018;28;20031;-71
2022/12/16 04:09:08;;;;;;;129.02;42.60;;;;;;;-1.80;100.00;101134.41;5164418;28;20022;-71
2022/12/16 04:26:17;;;;;;;127.75;44.45;;;;;;;-1.67;100.00;101143.34;5164656;28;20037;-71
2022/12/16 04:28:47;;;;;;;133.65;42.95;;;;;;;-1.72;100.00;101148.84;5163880;28;20058;-70
2022/12/16 04:31:17;;;;;;;118.03;40.70;;;;;;;-1.78;100.00;101151.78;5163573;28;20026;-71
